Hauptseite
METAR-TAF:

METAR-TAF

Flughäfen :

Nouakchott, Mauretanien

Flughafen Nouakchott-Oumtounsy

Breite: 18-18-36N, Länge: 015-58-11W, Höhe: 3 m

Beobachtung

Neuester Wetterbericht von vor 17 Minuten, um 12:00 UTC
Wind 14 kt aus Nord
Temperatur 30°C
Luftfeuchtigkeit 49%
Luftdruck 1014 hPa
Sichtweite: 8000 m

METAR: GQNO 281200Z 01014KT 8000 NSC 30/18 Q1014 NOSIG

Zeit: 12:17 (12:17 UTC)

Prognose

Neuester Wetterbericht von vor 1 Stunde und 17 Minuten, um 11:00 UTC
Gültige Prognose vom 28 um 12 UTC bis 29 um 18 UTC
Wind 14 kt aus Nord
Sichtweite: 7000 m

TAF: GQNO 281100Z 2812/2918 35014KT 7000 NSC

Wetterbeobachtungen und Prognosen von mehr als 4000 Flughäfen (METAR und TAF Bericht).

Die verfügbaren Stationen werden durch gelbe und rote Markierungen auf der Karte dargestellt.

Führen Sie die Maus auf sie, um den Namen der Station zu sehen.

Darauf klicken, um die Beobachtung von Wetterbeobachtungen und Prognosen zu sehen.

Um die Karte zu ändern : klicken Sie auf den grünen Tasten mit einem schwarzen Kreuz Zum Vergrößern, auf den grünen Button mit einem Gedankenstrich zu verkleinern, oder auf die grünen Pfeile für benachbarte Karten.


METAR-TAF: